sensor_id;sensor_type;location;lat;lon;timestamp;P1;durP1;ratioP1;P2;durP2;ratioP2
25952;SDS011;13750;50.804;8.764;2022-07-29T00:01:22;2.00;;;1.00;;
25952;SDS011;13750;50.804;8.764;2022-07-29T00:03:48;2.17;;;1.10;;
25952;SDS011;13750;50.804;8.764;2022-07-29T00:06:14;1.20;;;1.07;;
25952;SDS011;13750;50.804;8.764;2022-07-29T00:08:40;3.05;;;1.42;;
25952;SDS011;13750;50.804;8.764;2022-07-29T00:11:06;2.57;;;1.17;;
25952;SDS011;13750;50.804;8.764;2022-07-29T00:13:31;2.50;;;1.10;;
25952;SDS011;13750;50.804;8.764;2022-07-29T00:15:57;1.50;;;1.00;;
25952;SDS011;13750;50.804;8.764;2022-07-29T00:18:22;3.63;;;0.90;;
25952;SDS011;13750;50.804;8.764;2022-07-29T00:20:48;2.67;;;1.10;;
25952;SDS011;13750;50.804;8.764;2022-07-29T00:23:14;1.23;;;1.07;;
25952;SDS011;13750;50.804;8.764;2022-07-29T00:25:39;2.50;;;0.90;;
25952;SDS011;13750;50.804;8.764;2022-07-29T00:28:05;1.70;;;0.90;;
25952;SDS011;13750;50.804;8.764;2022-07-29T00:30:31;1.53;;;1.23;;
25952;SDS011;13750;50.804;8.764;2022-07-29T00:32:56;3.83;;;1.60;;
25952;SDS011;13750;50.804;8.764;2022-07-29T00:35:22;1.73;;;1.33;;
25952;SDS011;13750;50.804;8.764;2022-07-29T00:38:07;4.30;;;1.33;;
25952;SDS011;13750;50.804;8.764;2022-07-29T00:40:33;2.90;;;0.90;;
25952;SDS011;13750;50.804;8.764;2022-07-29T00:42:58;3.43;;;1.27;;
25952;SDS011;13750;50.804;8.764;2022-07-29T00:45:24;5.17;;;1.23;;
25952;SDS011;13750;50.804;8.764;2022-07-29T00:47:50;1.27;;;1.17;;
25952;SDS011;13750;50.804;8.764;2022-07-29T00:50:15;2.27;;;1.33;;
25952;SDS011;13750;50.804;8.764;2022-07-29T00:52:42;2.05;;;1.08;;
25952;SDS011;13750;50.804;8.764;2022-07-29T00:55:09;1.60;;;1.10;;
25952;SDS011;13750;50.804;8.764;2022-07-29T00:57:37;3.13;;;1.20;;
25952;SDS011;13750;50.804;8.764;2022-07-29T01:00:04;3.13;;;1.33;;
25952;SDS011;13750;50.804;8.764;2022-07-29T01:02:31;2.53;;;1.30;;
25952;SDS011;13750;50.804;8.764;2022-07-29T01:04:57;2.73;;;1.00;;
25952;SDS011;13750;50.804;8.764;2022-07-29T01:07:24;1.83;;;1.23;;
25952;SDS011;13750;50.804;8.764;2022-07-29T01:09:51;1.75;;;0.95;;
25952;SDS011;13750;50.804;8.764;2022-07-29T01:12:19;1.88;;;1.10;;
25952;SDS011;13750;50.804;8.764;2022-07-29T01:14:49;2.42;;;1.15;;
25952;SDS011;13750;50.804;8.764;2022-07-29T01:25:54;2.75;;;1.10;;
25952;SDS011;13750;50.804;8.764;2022-07-29T01:31:02;1.73;;;1.07;;
25952;SDS011;13750;50.804;8.764;2022-07-29T01:33:31;2.33;;;0.98;;
25952;SDS011;13750;50.804;8.764;2022-07-29T01:36:14;1.08;;;0.98;;
25952;SDS011;13750;50.804;8.764;2022-07-29T01:38:57;1.00;;;0.80;;
25952;SDS011;13750;50.804;8.764;2022-07-29T01:41:28;1.00;;;0.70;;
25952;SDS011;13750;50.804;8.764;2022-07-29T01:44:01;0.75;;;0.65;;
25952;SDS011;13750;50.804;8.764;2022-07-29T01:46:37;1.08;;;0.50;;
25952;SDS011;13750;50.804;8.764;2022-07-29T01:49:16;0.60;;;0.60;;
25952;SDS011;13750;50.804;8.764;2022-07-29T01:51:48;0.73;;;0.65;;
25952;SDS011;13750;50.804;8.764;2022-07-29T01:56:50;0.70;;;0.50;;
25952;SDS011;13750;50.804;8.764;2022-07-29T01:59:18;0.68;;;0.57;;
25952;SDS011;13750;50.804;8.764;2022-07-29T02:01:45;0.55;;;0.40;;
25952;SDS011;13750;50.804;8.764;2022-07-29T02:04:13;1.08;;;0.82;;
25952;SDS011;13750;50.804;8.764;2022-07-29T02:06:41;0.60;;;0.50;;
25952;SDS011;13750;50.804;8.764;2022-07-29T02:09:09;0.60;;;0.50;;
25952;SDS011;13750;50.804;8.764;2022-07-29T02:11:37;0.68;;;0.57;;
25952;SDS011;13750;50.804;8.764;2022-07-29T02:14:05;1.13;;;0.55;;
25952;SDS011;13750;50.804;8.764;2022-07-29T02:16:32;0.63;;;0.52;;
25952;SDS011;13750;50.804;8.764;2022-07-29T02:19:01;0.47;;;0.45;;
25952;SDS011;13750;50.804;8.764;2022-07-29T02:21:27;0.60;;;0.50;;
25952;SDS011;13750;50.804;8.764;2022-07-29T02:23:57;0.55;;;0.55;;
25952;SDS011;13750;50.804;8.764;2022-07-29T02:26:26;0.47;;;0.40;;
25952;SDS011;13750;50.804;8.764;2022-07-29T02:31:21;0.85;;;0.50;;
25952;SDS011;13750;50.804;8.764;2022-07-29T02:33:50;1.90;;;0.85;;
25952;SDS011;13750;50.804;8.764;2022-07-29T02:36:17;1.45;;;0.80;;
25952;SDS011;13750;50.804;8.764;2022-07-29T02:38:46;1.48;;;0.80;;
25952;SDS011;13750;50.804;8.764;2022-07-29T02:41:42;2.75;;;1.35;;
25952;SDS011;13750;50.804;8.764;2022-07-29T02:44:17;1.52;;;1.27;;
25952;SDS011;13750;50.804;8.764;2022-07-29T02:46:49;2.75;;;1.27;;
25952;SDS011;13750;50.804;8.764;2022-07-29T02:49:23;2.08;;;1.38;;
25952;SDS011;13750;50.804;8.764;2022-07-29T02:52:03;1.48;;;1.00;;
25952;SDS011;13750;50.804;8.764;2022-07-29T02:54:46;3.42;;;1.25;;
25952;SDS011;13750;50.804;8.764;2022-07-29T02:57:22;3.90;;;1.38;;
25952;SDS011;13750;50.804;8.764;2022-07-29T03:00:00;4.30;;;1.10;;
25952;SDS011;13750;50.804;8.764;2022-07-29T03:02:32;2.40;;;1.13;;
25952;SDS011;13750;50.804;8.764;2022-07-29T03:05:00;1.85;;;1.00;;
25952;SDS011;13750;50.804;8.764;2022-07-29T03:07:27;3.72;;;1.52;;
25952;SDS011;13750;50.804;8.764;2022-07-29T03:12:20;1.80;;;1.20;;
25952;SDS011;13750;50.804;8.764;2022-07-29T03:14:46;2.03;;;1.10;;
25952;SDS011;13750;50.804;8.764;2022-07-29T03:17:13;3.15;;;1.20;;
25952;SDS011;13750;50.804;8.764;2022-07-29T03:19:39;2.35;;;1.10;;
25952;SDS011;13750;50.804;8.764;2022-07-29T03:22:06;1.27;;;1.00;;
25952;SDS011;13750;50.804;8.764;2022-07-29T03:24:34;2.63;;;1.20;;
25952;SDS011;13750;50.804;8.764;2022-07-29T03:27:00;2.20;;;1.25;;
25952;SDS011;13750;50.804;8.764;2022-07-29T03:29:27;2.00;;;1.40;;
25952;SDS011;13750;50.804;8.764;2022-07-29T03:31:53;3.05;;;1.38;;
25952;SDS011;13750;50.804;8.764;2022-07-29T03:34:19;2.53;;;1.33;;
25952;SDS011;13750;50.804;8.764;2022-07-29T03:36:45;2.78;;;1.30;;
25952;SDS011;13750;50.804;8.764;2022-07-29T03:39:11;1.93;;;1.10;;
25952;SDS011;13750;50.804;8.764;2022-07-29T03:41:40;2.28;;;1.30;;
25952;SDS011;13750;50.804;8.764;2022-07-29T03:46:34;2.45;;;1.35;;
25952;SDS011;13750;50.804;8.764;2022-07-29T03:49:02;4.53;;;1.77;;
25952;SDS011;13750;50.804;8.764;2022-07-29T03:51:29;3.80;;;1.40;;
25952;SDS011;13750;50.804;8.764;2022-07-29T03:53:56;2.53;;;1.20;;
25952;SDS011;13750;50.804;8.764;2022-07-29T03:56:22;2.35;;;1.40;;
25952;SDS011;13750;50.804;8.764;2022-07-29T03:58:49;3.50;;;1.42;;
25952;SDS011;13750;50.804;8.764;2022-07-29T04:01:17;3.70;;;1.70;;
25952;SDS011;13750;50.804;8.764;2022-07-29T04:06:13;1.58;;;1.17;;
25952;SDS011;13750;50.804;8.764;2022-07-29T04:08:39;1.75;;;1.27;;
25952;SDS011;13750;50.804;8.764;2022-07-29T04:11:04;1.43;;;0.90;;
25952;SDS011;13750;50.804;8.764;2022-07-29T04:13:31;1.17;;;0.82;;
25952;SDS011;13750;50.804;8.764;2022-07-29T04:15:57;2.95;;;1.20;;
25952;SDS011;13750;50.804;8.764;2022-07-29T04:18:23;1.43;;;1.00;;
25952;SDS011;13750;50.804;8.764;2022-07-29T04:20:49;2.80;;;1.30;;
25952;SDS011;13750;50.804;8.764;2022-07-29T04:23:15;1.05;;;1.00;;
25952;SDS011;13750;50.804;8.764;2022-07-29T04:25:40;1.70;;;1.07;;
25952;SDS011;13750;50.804;8.764;2022-07-29T04:28:07;2.80;;;1.23;;
25952;SDS011;13750;50.804;8.764;2022-07-29T04:33:00;1.95;;;1.33;;
25952;SDS011;13750;50.804;8.764;2022-07-29T04:35:27;0.80;;;0.80;;
25952;SDS011;13750;50.804;8.764;2022-07-29T04:37:54;0.90;;;0.70;;
25952;SDS011;13750;50.804;8.764;2022-07-29T04:40:20;1.43;;;0.90;;
25952;SDS011;13750;50.804;8.764;2022-07-29T04:42:45;1.17;;;0.60;;
25952;SDS011;13750;50.804;8.764;2022-07-29T04:45:11;0.43;;;0.43;;
25952;SDS011;13750;50.804;8.764;2022-07-29T04:47:37;0.70;;;0.60;;
25952;SDS011;13750;50.804;8.764;2022-07-29T04:50:02;0.97;;;0.57;;
25952;SDS011;13750;50.804;8.764;2022-07-29T04:52:30;1.90;;;0.80;;
25952;SDS011;13750;50.804;8.764;2022-07-29T04:54:55;3.43;;;1.23;;
25952;SDS011;13750;50.804;8.764;2022-07-29T04:57:21;1.10;;;0.90;;
25952;SDS011;13750;50.804;8.764;2022-07-29T04:59:47;1.50;;;0.80;;
25952;SDS011;13750;50.804;8.764;2022-07-29T05:02:13;0.93;;;0.60;;
25952;SDS011;13750;50.804;8.764;2022-07-29T05:04:39;0.93;;;0.70;;
25952;SDS011;13750;50.804;8.764;2022-07-29T05:07:04;0.77;;;0.70;;
25952;SDS011;13750;50.804;8.764;2022-07-29T05:09:30;1.30;;;1.10;;
25952;SDS011;13750;50.804;8.764;2022-07-29T05:11:57;1.45;;;1.00;;
25952;SDS011;13750;50.804;8.764;2022-07-29T05:14:25;1.50;;;0.93;;
25952;SDS011;13750;50.804;8.764;2022-07-29T05:16:50;1.27;;;0.95;;
25952;SDS011;13750;50.804;8.764;2022-07-29T05:19:17;1.95;;;1.10;;
25952;SDS011;13750;50.804;8.764;2022-07-29T05:21:44;3.40;;;1.20;;
25952;SDS011;13750;50.804;8.764;2022-07-29T05:24:10;2.13;;;1.10;;
25952;SDS011;13750;50.804;8.764;2022-07-29T05:26:36;4.78;;;2.13;;
25952;SDS011;13750;50.804;8.764;2022-07-29T05:29:02;1.90;;;1.00;;
25952;SDS011;13750;50.804;8.764;2022-07-29T05:31:27;3.33;;;1.43;;
25952;SDS011;13750;50.804;8.764;2022-07-29T05:33:53;3.73;;;1.47;;
25952;SDS011;13750;50.804;8.764;2022-07-29T05:36:18;2.77;;;1.20;;
25952;SDS011;13750;50.804;8.764;2022-07-29T05:38:44;2.27;;;1.40;;
25952;SDS011;13750;50.804;8.764;2022-07-29T05:41:10;2.83;;;1.83;;
25952;SDS011;13750;50.804;8.764;2022-07-29T05:43:35;2.23;;;1.27;;
25952;SDS011;13750;50.804;8.764;2022-07-29T05:46:01;2.57;;;1.20;;
25952;SDS011;13750;50.804;8.764;2022-07-29T05:48:27;1.03;;;0.77;;
25952;SDS011;13750;50.804;8.764;2022-07-29T05:50:53;1.10;;;0.90;;
25952;SDS011;13750;50.804;8.764;2022-07-29T05:53:19;1.17;;;0.80;;
25952;SDS011;13750;50.804;8.764;2022-07-29T05:55:45;1.00;;;0.87;;
25952;SDS011;13750;50.804;8.764;2022-07-29T05:58:10;0.60;;;0.60;;
25952;SDS011;13750;50.804;8.764;2022-07-29T06:00:36;1.30;;;0.87;;
25952;SDS011;13750;50.804;8.764;2022-07-29T06:03:02;1.10;;;0.70;;
25952;SDS011;13750;50.804;8.764;2022-07-29T06:05:27;2.33;;;1.43;;
25952;SDS011;13750;50.804;8.764;2022-07-29T06:07:53;2.30;;;1.20;;
25952;SDS011;13750;50.804;8.764;2022-07-29T06:10:20;1.33;;;0.90;;
25952;SDS011;13750;50.804;8.764;2022-07-29T06:15:11;2.35;;;1.52;;
25952;SDS011;13750;50.804;8.764;2022-07-29T06:17:36;3.07;;;1.30;;
25952;SDS011;13750;50.804;8.764;2022-07-29T06:20:02;2.97;;;1.20;;
25952;SDS011;13750;50.804;8.764;2022-07-29T06:22:28;3.60;;;1.75;;
25952;SDS011;13750;50.804;8.764;2022-07-29T06:24:54;2.83;;;1.48;;
25952;SDS011;13750;50.804;8.764;2022-07-29T06:27:20;5.67;;;1.67;;
25952;SDS011;13750;50.804;8.764;2022-07-29T06:29:46;3.83;;;1.67;;
25952;SDS011;13750;50.804;8.764;2022-07-29T06:32:11;2.47;;;1.20;;
25952;SDS011;13750;50.804;8.764;2022-07-29T06:34:38;1.57;;;1.10;;
25952;SDS011;13750;50.804;8.764;2022-07-29T06:39:34;1.63;;;1.00;;
25952;SDS011;13750;50.804;8.764;2022-07-29T06:42:01;3.10;;;1.20;;
25952;SDS011;13750;50.804;8.764;2022-07-29T06:44:28;3.67;;;1.42;;
25952;SDS011;13750;50.804;8.764;2022-07-29T06:46:54;2.90;;;1.48;;
25952;SDS011;13750;50.804;8.764;2022-07-29T06:49:20;1.38;;;1.05;;
25952;SDS011;13750;50.804;8.764;2022-07-29T06:51:46;2.90;;;1.40;;
25952;SDS011;13750;50.804;8.764;2022-07-29T06:54:12;2.70;;;1.10;;
25952;SDS011;13750;50.804;8.764;2022-07-29T06:56:38;2.73;;;1.20;;
25952;SDS011;13750;50.804;8.764;2022-07-29T06:59:09;6.22;;;1.50;;
25952;SDS011;13750;50.804;8.764;2022-07-29T07:01:36;2.40;;;1.30;;
25952;SDS011;13750;50.804;8.764;2022-07-29T07:04:06;2.55;;;1.15;;
25952;SDS011;13750;50.804;8.764;2022-07-29T07:06:39;3.10;;;1.67;;
25952;SDS011;13750;50.804;8.764;2022-07-29T07:09:05;4.68;;;1.60;;
25952;SDS011;13750;50.804;8.764;2022-07-29T07:11:31;2.33;;;1.37;;
25952;SDS011;13750;50.804;8.764;2022-07-29T07:13:59;4.65;;;1.70;;
25952;SDS011;13750;50.804;8.764;2022-07-29T07:16:25;1.47;;;1.20;;
25952;SDS011;13750;50.804;8.764;2022-07-29T07:18:50;1.57;;;1.00;;
25952;SDS011;13750;50.804;8.764;2022-07-29T07:21:16;1.87;;;1.37;;
25952;SDS011;13750;50.804;8.764;2022-07-29T07:23:42;2.17;;;1.30;;
25952;SDS011;13750;50.804;8.764;2022-07-29T07:26:07;1.37;;;1.00;;
25952;SDS011;13750;50.804;8.764;2022-07-29T07:28:33;2.63;;;1.47;;
25952;SDS011;13750;50.804;8.764;2022-07-29T07:30:58;4.13;;;1.90;;
25952;SDS011;13750;50.804;8.764;2022-07-29T07:33:24;2.73;;;1.80;;
25952;SDS011;13750;50.804;8.764;2022-07-29T07:35:50;3.27;;;1.53;;
25952;SDS011;13750;50.804;8.764;2022-07-29T07:38:15;3.53;;;1.50;;
25952;SDS011;13750;50.804;8.764;2022-07-29T07:40:41;3.77;;;1.50;;
25952;SDS011;13750;50.804;8.764;2022-07-29T07:43:07;2.60;;;1.50;;
25952;SDS011;13750;50.804;8.764;2022-07-29T07:45:32;5.10;;;1.90;;
25952;SDS011;13750;50.804;8.764;2022-07-29T07:47:58;2.70;;;1.43;;
25952;SDS011;13750;50.804;8.764;2022-07-29T07:50:24;5.40;;;1.50;;
25952;SDS011;13750;50.804;8.764;2022-07-29T07:52:51;2.47;;;1.90;;
25952;SDS011;13750;50.804;8.764;2022-07-29T07:55:19;2.80;;;1.80;;
25952;SDS011;13750;50.804;8.764;2022-07-29T07:57:45;1.90;;;1.23;;
25952;SDS011;13750;50.804;8.764;2022-07-29T08:00:12;2.47;;;1.42;;
25952;SDS011;13750;50.804;8.764;2022-07-29T08:02:39;1.73;;;1.10;;
25952;SDS011;13750;50.804;8.764;2022-07-29T08:05:07;2.15;;;1.10;;
25952;SDS011;13750;50.804;8.764;2022-07-29T08:07:33;1.17;;;1.10;;
25952;SDS011;13750;50.804;8.764;2022-07-29T08:09:59;1.33;;;1.10;;
25952;SDS011;13750;50.804;8.764;2022-07-29T08:12:24;1.47;;;1.00;;
25952;SDS011;13750;50.804;8.764;2022-07-29T08:14:50;1.63;;;0.90;;
25952;SDS011;13750;50.804;8.764;2022-07-29T08:17:16;1.23;;;1.13;;
25952;SDS011;13750;50.804;8.764;2022-07-29T08:19:41;0.87;;;0.87;;
25952;SDS011;13750;50.804;8.764;2022-07-29T08:22:07;1.00;;;0.90;;
25952;SDS011;13750;50.804;8.764;2022-07-29T08:24:32;1.23;;;0.90;;
25952;SDS011;13750;50.804;8.764;2022-07-29T08:27:16;1.35;;;0.80;;
25952;SDS011;13750;50.804;8.764;2022-07-29T08:29:42;2.37;;;1.27;;
25952;SDS011;13750;50.804;8.764;2022-07-29T08:32:08;1.20;;;1.00;;
25952;SDS011;13750;50.804;8.764;2022-07-29T08:34:34;1.03;;;0.90;;
25952;SDS011;13750;50.804;8.764;2022-07-29T08:36:59;1.03;;;0.80;;
25952;SDS011;13750;50.804;8.764;2022-07-29T08:39:25;1.90;;;1.00;;
25952;SDS011;13750;50.804;8.764;2022-07-29T08:41:51;0.77;;;0.77;;
25952;SDS011;13750;50.804;8.764;2022-07-29T08:44:18;1.08;;;0.80;;
25952;SDS011;13750;50.804;8.764;2022-07-29T08:46:44;1.08;;;0.80;;
25952;SDS011;13750;50.804;8.764;2022-07-29T08:49:10;1.70;;;1.10;;
25952;SDS011;13750;50.804;8.764;2022-07-29T08:51:36;1.33;;;0.93;;
25952;SDS011;13750;50.804;8.764;2022-07-29T08:54:04;0.80;;;0.80;;
25952;SDS011;13750;50.804;8.764;2022-07-29T08:56:31;0.90;;;0.75;;
25952;SDS011;13750;50.804;8.764;2022-07-29T08:58:58;1.23;;;1.02;;
25952;SDS011;13750;50.804;8.764;2022-07-29T09:05:39;2.33;;;1.77;;
25952;SDS011;13750;50.804;8.764;2022-07-29T09:08:51;2.55;;;1.50;;
25952;SDS011;13750;50.804;8.764;2022-07-29T09:14:50;1.20;;;1.10;;
25952;SDS011;13750;50.804;8.764;2022-07-29T09:23:38;1.05;;;1.00;;
25952;SDS011;13750;50.804;8.764;2022-07-29T09:26:43;1.05;;;0.80;;
25952;SDS011;13750;50.804;8.764;2022-07-29T09:32:57;1.33;;;1.23;;
25952;SDS011;13750;50.804;8.764;2022-07-29T09:35:31;1.38;;;1.13;;
25952;SDS011;13750;50.804;8.764;2022-07-29T09:38:11;2.15;;;1.35;;
25952;SDS011;13750;50.804;8.764;2022-07-29T09:41:01;1.80;;;1.50;;
25952;SDS011;13750;50.804;8.764;2022-07-29T09:43:28;2.38;;;1.50;;
25952;SDS011;13750;50.804;8.764;2022-07-29T09:45:54;1.80;;;1.70;;
25952;SDS011;13750;50.804;8.764;2022-07-29T09:48:21;1.87;;;1.40;;
25952;SDS011;13750;50.804;8.764;2022-07-29T09:50:49;1.90;;;1.80;;
25952;SDS011;13750;50.804;8.764;2022-07-29T09:53:34;2.70;;;1.30;;
25952;SDS011;13750;50.804;8.764;2022-07-29T09:56:02;1.48;;;1.38;;
25952;SDS011;13750;50.804;8.764;2022-07-29T09:58:31;1.40;;;1.23;;
25952;SDS011;13750;50.804;8.764;2022-07-29T10:00:58;1.73;;;1.40;;
25952;SDS011;13750;50.804;8.764;2022-07-29T10:03:24;1.65;;;1.55;;
25952;SDS011;13750;50.804;8.764;2022-07-29T10:06:11;2.33;;;1.80;;
25952;SDS011;13750;50.804;8.764;2022-07-29T10:13:48;1.98;;;1.75;;
25952;SDS011;13750;50.804;8.764;2022-07-29T10:16:15;1.75;;;1.65;;
25952;SDS011;13750;50.804;8.764;2022-07-29T10:18:41;2.38;;;1.60;;
25952;SDS011;13750;50.804;8.764;2022-07-29T10:21:08;2.13;;;1.83;;
25952;SDS011;13750;50.804;8.764;2022-07-29T10:23:37;2.25;;;1.83;;
25952;SDS011;13750;50.804;8.764;2022-07-29T10:26:04;2.03;;;1.70;;
25952;SDS011;13750;50.804;8.764;2022-07-29T10:28:32;1.80;;;1.70;;
25952;SDS011;13750;50.804;8.764;2022-07-29T10:31:01;1.63;;;1.30;;
25952;SDS011;13750;50.804;8.764;2022-07-29T10:33:34;2.58;;;1.70;;
25952;SDS011;13750;50.804;8.764;2022-07-29T10:39:27;1.90;;;1.70;;
25952;SDS011;13750;50.804;8.764;2022-07-29T10:42:17;1.60;;;1.50;;
25952;SDS011;13750;50.804;8.764;2022-07-29T10:44:51;2.30;;;2.10;;
25952;SDS011;13750;50.804;8.764;2022-07-29T10:47:22;2.17;;;1.98;;
25952;SDS011;13750;50.804;8.764;2022-07-29T10:49:54;2.28;;;1.80;;
25952;SDS011;13750;50.804;8.764;2022-07-29T10:52:24;2.45;;;1.90;;
25952;SDS011;13750;50.804;8.764;2022-07-29T10:55:10;4.20;;;1.90;;
25952;SDS011;13750;50.804;8.764;2022-07-29T10:58:14;1.90;;;1.70;;
25952;SDS011;13750;50.804;8.764;2022-07-29T11:00:41;2.78;;;1.75;;
25952;SDS011;13750;50.804;8.764;2022-07-29T11:03:09;1.90;;;1.73;;
25952;SDS011;13750;50.804;8.764;2022-07-29T11:05:55;1.48;;;1.38;;
25952;SDS011;13750;50.804;8.764;2022-07-29T11:10:49;2.25;;;1.95;;
25952;SDS011;13750;50.804;8.764;2022-07-29T11:13:44;1.83;;;1.50;;
25952;SDS011;13750;50.804;8.764;2022-07-29T11:16:06;1.60;;;1.50;;
25952;SDS011;13750;50.804;8.764;2022-07-29T11:18:32;2.07;;;1.47;;
25952;SDS011;13750;50.804;8.764;2022-07-29T11:20:58;2.22;;;1.63;;
25952;SDS011;13750;50.804;8.764;2022-07-29T11:23:28;2.13;;;1.52;;
25952;SDS011;13750;50.804;8.764;2022-07-29T11:31:31;3.20;;;2.30;;
25952;SDS011;13750;50.804;8.764;2022-07-29T11:34:43;2.20;;;2.00;;
25952;SDS011;13750;50.804;8.764;2022-07-29T11:39:43;1.75;;;1.65;;
25952;SDS011;13750;50.804;8.764;2022-07-29T11:47:24;1.52;;;1.23;;
25952;SDS011;13750;50.804;8.764;2022-07-29T11:49:52;1.30;;;1.20;;
25952;SDS011;13750;50.804;8.764;2022-07-29T11:52:20;2.55;;;1.80;;
25952;SDS011;13750;50.804;8.764;2022-07-29T11:54:49;2.47;;;1.95;;
25952;SDS011;13750;50.804;8.764;2022-07-29T11:57:17;1.73;;;1.60;;
25952;SDS011;13750;50.804;8.764;2022-07-29T11:59:44;2.42;;;2.22;;
25952;SDS011;13750;50.804;8.764;2022-07-29T12:02:12;1.92;;;1.73;;
25952;SDS011;13750;50.804;8.764;2022-07-29T12:04:51;1.75;;;1.60;;
25952;SDS011;13750;50.804;8.764;2022-07-29T12:07:17;1.40;;;1.25;;
25952;SDS011;13750;50.804;8.764;2022-07-29T12:09:51;3.38;;;1.70;;
25952;SDS011;13750;50.804;8.764;2022-07-29T12:12:18;3.15;;;2.45;;
25952;SDS011;13750;50.804;8.764;2022-07-29T12:14:46;2.25;;;1.90;;
25952;SDS011;13750;50.804;8.764;2022-07-29T12:17:31;2.67;;;2.47;;
25952;SDS011;13750;50.804;8.764;2022-07-29T12:19:58;1.95;;;1.50;;
25952;SDS011;13750;50.804;8.764;2022-07-29T12:24:54;1.50;;;1.40;;
25952;SDS011;13750;50.804;8.764;2022-07-29T12:27:21;1.73;;;1.55;;
25952;SDS011;13750;50.804;8.764;2022-07-29T12:34:56;1.90;;;1.48;;
25952;SDS011;13750;50.804;8.764;2022-07-29T12:37:21;1.67;;;1.57;;
25952;SDS011;13750;50.804;8.764;2022-07-29T12:39:47;1.63;;;1.50;;
25952;SDS011;13750;50.804;8.764;2022-07-29T12:42:14;2.03;;;1.55;;
25952;SDS011;13750;50.804;8.764;2022-07-29T12:44:47;2.38;;;1.88;;
25952;SDS011;13750;50.804;8.764;2022-07-29T12:47:14;2.42;;;1.95;;
25952;SDS011;13750;50.804;8.764;2022-07-29T12:49:41;3.28;;;2.53;;
25952;SDS011;13750;50.804;8.764;2022-07-29T12:52:28;3.13;;;2.08;;
25952;SDS011;13750;50.804;8.764;2022-07-29T12:54:53;3.45;;;2.03;;
25952;SDS011;13750;50.804;8.764;2022-07-29T12:57:18;2.80;;;1.87;;
25952;SDS011;13750;50.804;8.764;2022-07-29T12:59:57;2.28;;;1.83;;
25952;SDS011;13750;50.804;8.764;2022-07-29T13:02:33;2.22;;;2.03;;
25952;SDS011;13750;50.804;8.764;2022-07-29T13:04:59;2.00;;;1.90;;
25952;SDS011;13750;50.804;8.764;2022-07-29T13:07:29;2.58;;;1.65;;
25952;SDS011;13750;50.804;8.764;2022-07-29T13:10:13;1.60;;;1.50;;
25952;SDS011;13750;50.804;8.764;2022-07-29T13:15:29;2.40;;;2.20;;
25952;SDS011;13750;50.804;8.764;2022-07-29T13:17:55;2.08;;;1.88;;
25952;SDS011;13750;50.804;8.764;2022-07-29T13:20:23;3.20;;;1.90;;
25952;SDS011;13750;50.804;8.764;2022-07-29T13:22:52;1.65;;;1.55;;
25952;SDS011;13750;50.804;8.764;2022-07-29T13:25:28;1.60;;;1.50;;
25952;SDS011;13750;50.804;8.764;2022-07-29T13:27:55;1.33;;;1.23;;
25952;SDS011;13750;50.804;8.764;2022-07-29T13:30:21;1.65;;;1.42;;
25952;SDS011;13750;50.804;8.764;2022-07-29T13:35:13;1.30;;;1.20;;
25952;SDS011;13750;50.804;8.764;2022-07-29T13:37:39;1.40;;;1.30;;
25952;SDS011;13750;50.804;8.764;2022-07-29T13:40:05;1.20;;;1.10;;
25952;SDS011;13750;50.804;8.764;2022-07-29T13:42:32;1.45;;;1.10;;
25952;SDS011;13750;50.804;8.764;2022-07-29T13:44:58;0.97;;;0.97;;
25952;SDS011;13750;50.804;8.764;2022-07-29T13:47:24;1.10;;;1.00;;
25952;SDS011;13750;50.804;8.764;2022-07-29T13:49:50;0.90;;;0.90;;
25952;SDS011;13750;50.804;8.764;2022-07-29T13:52:16;0.98;;;0.98;;
25952;SDS011;13750;50.804;8.764;2022-07-29T13:54:42;1.30;;;1.20;;
25952;SDS011;13750;50.804;8.764;2022-07-29T13:57:08;1.60;;;1.40;;
25952;SDS011;13750;50.804;8.764;2022-07-29T13:59:37;1.65;;;1.35;;
25952;SDS011;13750;50.804;8.764;2022-07-29T14:02:04;1.40;;;1.30;;
25952;SDS011;13750;50.804;8.764;2022-07-29T14:04:30;1.98;;;1.20;;
25952;SDS011;13750;50.804;8.764;2022-07-29T14:06:59;1.67;;;1.48;;
25952;SDS011;13750;50.804;8.764;2022-07-29T14:09:24;2.30;;;2.10;;
25952;SDS011;13750;50.804;8.764;2022-07-29T14:11:55;3.35;;;2.15;;
25952;SDS011;13750;50.804;8.764;2022-07-29T14:14:21;2.57;;;2.10;;
25952;SDS011;13750;50.804;8.764;2022-07-29T14:16:46;2.83;;;1.90;;
25952;SDS011;13750;50.804;8.764;2022-07-29T14:19:12;1.80;;;1.70;;
25952;SDS011;13750;50.804;8.764;2022-07-29T14:21:38;2.87;;;2.17;;
25952;SDS011;13750;50.804;8.764;2022-07-29T14:24:13;1.98;;;1.77;;
25952;SDS011;13750;50.804;8.764;2022-07-29T14:26:38;1.83;;;1.73;;
25952;SDS011;13750;50.804;8.764;2022-07-29T14:29:07;1.63;;;1.52;;
25952;SDS011;13750;50.804;8.764;2022-07-29T14:31:32;1.57;;;1.47;;
25952;SDS011;13750;50.804;8.764;2022-07-29T14:33:58;1.60;;;1.47;;
25952;SDS011;13750;50.804;8.764;2022-07-29T14:36:24;1.50;;;1.40;;
25952;SDS011;13750;50.804;8.764;2022-07-29T14:38:49;1.47;;;1.33;;
25952;SDS011;13750;50.804;8.764;2022-07-29T14:41:15;1.47;;;1.30;;
25952;SDS011;13750;50.804;8.764;2022-07-29T14:43:40;2.27;;;1.83;;
25952;SDS011;13750;50.804;8.764;2022-07-29T14:46:06;2.03;;;1.70;;
25952;SDS011;13750;50.804;8.764;2022-07-29T14:48:32;1.50;;;1.38;;
25952;SDS011;13750;50.804;8.764;2022-07-29T14:50:58;1.73;;;1.60;;
25952;SDS011;13750;50.804;8.764;2022-07-29T14:53:24;1.33;;;1.23;;
25952;SDS011;13750;50.804;8.764;2022-07-29T14:55:49;1.00;;;0.90;;
25952;SDS011;13750;50.804;8.764;2022-07-29T14:58:15;0.87;;;0.87;;
25952;SDS011;13750;50.804;8.764;2022-07-29T15:00:41;1.30;;;1.20;;
25952;SDS011;13750;50.804;8.764;2022-07-29T15:03:07;0.95;;;0.90;;
25952;SDS011;13750;50.804;8.764;2022-07-29T15:05:35;0.93;;;0.90;;
25952;SDS011;13750;50.804;8.764;2022-07-29T15:08:00;0.73;;;0.73;;
25952;SDS011;13750;50.804;8.764;2022-07-29T15:10:26;0.70;;;0.67;;
25952;SDS011;13750;50.804;8.764;2022-07-29T15:12:55;0.60;;;0.60;;
25952;SDS011;13750;50.804;8.764;2022-07-29T15:15:23;0.50;;;0.50;;
25952;SDS011;13750;50.804;8.764;2022-07-29T15:17:49;0.68;;;0.68;;
25952;SDS011;13750;50.804;8.764;2022-07-29T15:20:15;0.60;;;0.60;;
25952;SDS011;13750;50.804;8.764;2022-07-29T15:22:43;0.70;;;0.70;;
25952;SDS011;13750;50.804;8.764;2022-07-29T15:25:09;0.60;;;0.60;;
25952;SDS011;13750;50.804;8.764;2022-07-29T15:27:34;0.75;;;0.75;;
25952;SDS011;13750;50.804;8.764;2022-07-29T15:30:09;0.50;;;0.50;;
25952;SDS011;13750;50.804;8.764;2022-07-29T15:32:35;0.80;;;0.60;;
25952;SDS011;13750;50.804;8.764;2022-07-29T15:35:04;0.60;;;0.60;;
25952;SDS011;13750;50.804;8.764;2022-07-29T15:37:30;0.70;;;0.70;;
25952;SDS011;13750;50.804;8.764;2022-07-29T15:39:55;0.80;;;0.80;;
25952;SDS011;13750;50.804;8.764;2022-07-29T15:42:21;0.80;;;0.80;;
25952;SDS011;13750;50.804;8.764;2022-07-29T15:44:46;1.13;;;0.70;;
25952;SDS011;13750;50.804;8.764;2022-07-29T15:47:12;0.80;;;0.80;;
25952;SDS011;13750;50.804;8.764;2022-07-29T15:49:39;0.70;;;0.70;;
25952;SDS011;13750;50.804;8.764;2022-07-29T15:52:06;0.68;;;0.60;;
25952;SDS011;13750;50.804;8.764;2022-07-29T15:54:37;0.60;;;0.60;;
25952;SDS011;13750;50.804;8.764;2022-07-29T15:57:05;0.80;;;0.80;;
25952;SDS011;13750;50.804;8.764;2022-07-29T15:59:31;0.88;;;0.80;;
25952;SDS011;13750;50.804;8.764;2022-07-29T16:01:57;0.65;;;0.65;;
25952;SDS011;13750;50.804;8.764;2022-07-29T16:04:24;0.60;;;0.60;;
25952;SDS011;13750;50.804;8.764;2022-07-29T16:06:50;0.93;;;0.93;;
25952;SDS011;13750;50.804;8.764;2022-07-29T16:09:16;1.80;;;1.07;;
25952;SDS011;13750;50.804;8.764;2022-07-29T16:11:42;1.85;;;1.70;;
25952;SDS011;13750;50.804;8.764;2022-07-29T16:14:08;1.83;;;1.73;;
25952;SDS011;13750;50.804;8.764;2022-07-29T16:16:35;2.25;;;2.10;;
25952;SDS011;13750;50.804;8.764;2022-07-29T16:19:02;3.50;;;2.05;;
25952;SDS011;13750;50.804;8.764;2022-07-29T16:21:28;1.95;;;1.85;;